sensor_id;sensor_type;location;lat;lon;timestamp;pressure;altitude;pressure_sealevel;temperature
4944;BMP280;2487;52.224;11.006;2022-08-30T00:01:08;51576.78;;;-142.39
4944;BMP280;2487;52.224;11.006;2022-08-30T00:06:03;51556.53;;;-142.39
4944;BMP280;2487;52.224;11.006;2022-08-30T00:08:32;51590.94;;;-142.39
4944;BMP280;2487;52.224;11.006;2022-08-30T00:10:58;51588.91;;;-142.39
4944;BMP280;2487;52.224;11.006;2022-08-30T00:13:24;51592.97;;;-142.39
4944;BMP280;2487;52.224;11.006;2022-08-30T00:15:50;51582.84;;;-142.39
4944;BMP280;2487;52.224;11.006;2022-08-30T00:18:17;51578.78;;;-142.39
4944;BMP280;2487;52.224;11.006;2022-08-30T00:20:44;51584.88;;;-142.39
4944;BMP280;2487;52.224;11.006;2022-08-30T00:23:13;51548.44;;;-142.39
4944;BMP280;2487;52.224;11.006;2022-08-30T00:25:40;51572.72;;;-142.39
4944;BMP280;2487;52.224;11.006;2022-08-30T00:28:06;51556.53;;;-142.39
4944;BMP280;2487;52.224;11.006;2022-08-30T00:30:32;51603.09;;;-142.39
4944;BMP280;2487;52.224;11.006;2022-08-30T00:32:57;51566.66;;;-142.39
4944;BMP280;2487;52.224;11.006;2022-08-30T00:35:24;51586.91;;;-142.39
4944;BMP280;2487;52.224;11.006;2022-08-30T00:37:50;51548.44;;;-142.39
4944;BMP280;2487;52.224;11.006;2022-08-30T00:40:17;51580.81;;;-142.39
4944;BMP280;2487;52.224;11.006;2022-08-30T00:42:45;51550.47;;;-142.39
4944;BMP280;2487;52.224;11.006;2022-08-30T00:45:15;51568.69;;;-142.39
4944;BMP280;2487;52.224;11.006;2022-08-30T00:47:41;51566.66;;;-142.39
4944;BMP280;2487;52.224;11.006;2022-08-30T00:50:09;51558.56;;;-142.39
4944;BMP280;2487;52.224;11.006;2022-08-30T00:52:37;51599.03;;;-142.39
4944;BMP280;2487;52.224;11.006;2022-08-30T00:55:06;51592.97;;;-142.39
4944;BMP280;2487;52.224;11.006;2022-08-30T00:57:32;51558.56;;;-142.39
4944;BMP280;2487;52.224;11.006;2022-08-30T01:00:01;51550.47;;;-142.39
4944;BMP280;2487;52.224;11.006;2022-08-30T01:02:27;51578.78;;;-142.39
4944;BMP280;2487;52.224;11.006;2022-08-30T01:04:55;51592.97;;;-142.39
4944;BMP280;2487;52.224;11.006;2022-08-30T01:07:22;51603.09;;;-142.39
4944;BMP280;2487;52.224;11.006;2022-08-30T01:09:49;51572.72;;;-142.39
4944;BMP280;2487;52.224;11.006;2022-08-30T01:12:15;51611.19;;;-142.39
4944;BMP280;2487;52.224;11.006;2022-08-30T01:14:41;51554.50;;;-142.39
4944;BMP280;2487;52.224;11.006;2022-08-30T01:17:08;51590.94;;;-142.39
4944;BMP280;2487;52.224;11.006;2022-08-30T01:19:41;51570.69;;;-142.39
4944;BMP280;2487;52.224;11.006;2022-08-30T01:24:51;51623.31;;;-142.39
4944;BMP280;2487;52.224;11.006;2022-08-30T01:27:20;51607.13;;;-142.39
4944;BMP280;2487;52.224;11.006;2022-08-30T01:29:47;51558.56;;;-142.39
4944;BMP280;2487;52.224;11.006;2022-08-30T01:32:18;51564.63;;;-142.39
4944;BMP280;2487;52.224;11.006;2022-08-30T01:34:44;51607.13;;;-142.39
4944;BMP280;2487;52.224;11.006;2022-08-30T01:37:23;51578.78;;;-142.39
4944;BMP280;2487;52.224;11.006;2022-08-30T01:39:49;51582.84;;;-142.39
4944;BMP280;2487;52.224;11.006;2022-08-30T01:42:15;51590.94;;;-142.39
4944;BMP280;2487;52.224;11.006;2022-08-30T01:44:44;51623.31;;;-142.39
4944;BMP280;2487;52.224;11.006;2022-08-30T01:47:11;51550.47;;;-142.39
4944;BMP280;2487;52.224;11.006;2022-08-30T01:49:37;51597.00;;;-142.39
4944;BMP280;2487;52.224;11.006;2022-08-30T01:52:05;51590.94;;;-142.39
4944;BMP280;2487;52.224;11.006;2022-08-30T01:54:33;51584.88;;;-142.39
4944;BMP280;2487;52.224;11.006;2022-08-30T01:56:59;51580.81;;;-142.39
4944;BMP280;2487;52.224;11.006;2022-08-30T01:59:25;51572.72;;;-142.39
4944;BMP280;2487;52.224;11.006;2022-08-30T02:01:51;51562.59;;;-142.39
4944;BMP280;2487;52.224;11.006;2022-08-30T02:04:17;51592.97;;;-142.39
4944;BMP280;2487;52.224;11.006;2022-08-30T02:06:43;51570.69;;;-142.39
4944;BMP280;2487;52.224;11.006;2022-08-30T02:09:10;51607.13;;;-142.39
4944;BMP280;2487;52.224;11.006;2022-08-30T02:11:36;51599.03;;;-142.39
4944;BMP280;2487;52.224;11.006;2022-08-30T02:14:02;51574.75;;;-142.39
4944;BMP280;2487;52.224;11.006;2022-08-30T02:16:28;51576.78;;;-142.39
4944;BMP280;2487;52.224;11.006;2022-08-30T02:18:54;51560.59;;;-142.39
4944;BMP280;2487;52.224;11.006;2022-08-30T02:21:22;51580.81;;;-142.39
4944;BMP280;2487;52.224;11.006;2022-08-30T02:23:49;51568.69;;;-142.39
4944;BMP280;2487;52.224;11.006;2022-08-30T02:26:15;51546.41;;;-142.39
4944;BMP280;2487;52.224;11.006;2022-08-30T02:28:43;51582.84;;;-142.39
4944;BMP280;2487;52.224;11.006;2022-08-30T02:31:09;51578.78;;;-142.39
4944;BMP280;2487;52.224;11.006;2022-08-30T02:33:35;51546.41;;;-142.39
4944;BMP280;2487;52.224;11.006;2022-08-30T02:36:03;51572.72;;;-142.39
4944;BMP280;2487;52.224;11.006;2022-08-30T02:38:29;51586.91;;;-142.39
4944;BMP280;2487;52.224;11.006;2022-08-30T02:40:55;51590.94;;;-142.39
4944;BMP280;2487;52.224;11.006;2022-08-30T02:43:21;51578.78;;;-142.39
4944;BMP280;2487;52.224;11.006;2022-08-30T02:45:47;51592.97;;;-142.39
4944;BMP280;2487;52.224;11.006;2022-08-30T02:48:13;51590.94;;;-142.39
4944;BMP280;2487;52.224;11.006;2022-08-30T02:50:41;51570.69;;;-142.39
4944;BMP280;2487;52.224;11.006;2022-08-30T02:53:07;51576.78;;;-142.39
4944;BMP280;2487;52.224;11.006;2022-08-30T02:55:33;51558.56;;;-142.39
4944;BMP280;2487;52.224;11.006;2022-08-30T02:57:59;51562.59;;;-142.39
4944;BMP280;2487;52.224;11.006;2022-08-30T03:00:25;51542.38;;;-142.39
4944;BMP280;2487;52.224;11.006;2022-08-30T03:02:50;51619.28;;;-142.39
4944;BMP280;2487;52.224;11.006;2022-08-30T03:05:16;51546.41;;;-142.39
4944;BMP280;2487;52.224;11.006;2022-08-30T03:07:43;51609.16;;;-142.39
4944;BMP280;2487;52.224;11.006;2022-08-30T03:10:10;51590.94;;;-142.39
4944;BMP280;2487;52.224;11.006;2022-08-30T03:12:36;51592.97;;;-142.39
4944;BMP280;2487;52.224;11.006;2022-08-30T03:15:04;51611.19;;;-142.39
4944;BMP280;2487;52.224;11.006;2022-08-30T03:17:30;51560.59;;;-142.39
4944;BMP280;2487;52.224;11.006;2022-08-30T03:19:56;51578.78;;;-142.39
4944;BMP280;2487;52.224;11.006;2022-08-30T03:22:25;51570.69;;;-142.39
4944;BMP280;2487;52.224;11.006;2022-08-30T03:24:50;51588.91;;;-142.39
4944;BMP280;2487;52.224;11.006;2022-08-30T03:27:16;51550.47;;;-142.39
4944;BMP280;2487;52.224;11.006;2022-08-30T03:29:42;51578.78;;;-142.39
4944;BMP280;2487;52.224;11.006;2022-08-30T03:32:08;51570.69;;;-142.39
4944;BMP280;2487;52.224;11.006;2022-08-30T03:34:33;51564.63;;;-142.39
4944;BMP280;2487;52.224;11.006;2022-08-30T03:36:59;51576.78;;;-142.39
4944;BMP280;2487;52.224;11.006;2022-08-30T03:39:26;51607.13;;;-142.39
4944;BMP280;2487;52.224;11.006;2022-08-30T03:41:52;51556.53;;;-142.39
4944;BMP280;2487;52.224;11.006;2022-08-30T03:44:19;51595.00;;;-142.39
4944;BMP280;2487;52.224;11.006;2022-08-30T03:46:46;51580.81;;;-142.39
4944;BMP280;2487;52.224;11.006;2022-08-30T03:49:12;51552.50;;;-142.39
4944;BMP280;2487;52.224;11.006;2022-08-30T03:51:37;51615.22;;;-142.39
4944;BMP280;2487;52.224;11.006;2022-08-30T03:54:03;51588.91;;;-142.39
4944;BMP280;2487;52.224;11.006;2022-08-30T03:56:29;51599.03;;;-142.39
4944;BMP280;2487;52.224;11.006;2022-08-30T03:58:55;51558.56;;;-142.39
4944;BMP280;2487;52.224;11.006;2022-08-30T04:01:21;51568.69;;;-142.39
4944;BMP280;2487;52.224;11.006;2022-08-30T04:03:46;51552.50;;;-142.39
4944;BMP280;2487;52.224;11.006;2022-08-30T04:06:12;51578.78;;;-142.39
4944;BMP280;2487;52.224;11.006;2022-08-30T04:08:38;51554.50;;;-142.39
4944;BMP280;2487;52.224;11.006;2022-08-30T04:11:05;51592.97;;;-142.39
4944;BMP280;2487;52.224;11.006;2022-08-30T04:13:32;51554.50;;;-142.39
4944;BMP280;2487;52.224;11.006;2022-08-30T04:15:58;51556.53;;;-142.39
4944;BMP280;2487;52.224;11.006;2022-08-30T04:18:24;51576.78;;;-142.39
4944;BMP280;2487;52.224;11.006;2022-08-30T04:20:51;51572.72;;;-142.39
4944;BMP280;2487;52.224;11.006;2022-08-30T04:23:17;51554.50;;;-142.39
4944;BMP280;2487;52.224;11.006;2022-08-30T04:25:43;51562.59;;;-142.39
4944;BMP280;2487;52.224;11.006;2022-08-30T04:28:09;51578.78;;;-142.39
4944;BMP280;2487;52.224;11.006;2022-08-30T04:30:38;51584.88;;;-142.39
4944;BMP280;2487;52.224;11.006;2022-08-30T04:33:04;51550.47;;;-142.39
4944;BMP280;2487;52.224;11.006;2022-08-30T04:35:30;51570.69;;;-142.39
4944;BMP280;2487;52.224;11.006;2022-08-30T04:37:56;51542.38;;;-142.39
4944;BMP280;2487;52.224;11.006;2022-08-30T04:40:21;51544.41;;;-142.39
4944;BMP280;2487;52.224;11.006;2022-08-30T04:42:47;51550.47;;;-142.39
4944;BMP280;2487;52.224;11.006;2022-08-30T04:45:15;51590.94;;;-142.39
4944;BMP280;2487;52.224;11.006;2022-08-30T04:47:42;51597.00;;;-142.39
4944;BMP280;2487;52.224;11.006;2022-08-30T04:50:09;51554.50;;;-142.39
4944;BMP280;2487;52.224;11.006;2022-08-30T04:52:35;51534.28;;;-142.39
4944;BMP280;2487;52.224;11.006;2022-08-30T04:55:01;51570.69;;;-142.39
4944;BMP280;2487;52.224;11.006;2022-08-30T04:57:27;51580.81;;;-142.39
4944;BMP280;2487;52.224;11.006;2022-08-30T04:59:53;51566.66;;;-142.39
4944;BMP280;2487;52.224;11.006;2022-08-30T05:02:19;51546.41;;;-142.39
4944;BMP280;2487;52.224;11.006;2022-08-30T05:04:45;51590.94;;;-142.39
4944;BMP280;2487;52.224;11.006;2022-08-30T05:07:34;51550.47;;;-142.39
4944;BMP280;2487;52.224;11.006;2022-08-30T05:10:00;51578.78;;;-142.39
4944;BMP280;2487;52.224;11.006;2022-08-30T05:12:25;51546.41;;;-142.39
4944;BMP280;2487;52.224;11.006;2022-08-30T05:14:52;51566.66;;;-142.39
4944;BMP280;2487;52.224;11.006;2022-08-30T05:17:17;51542.38;;;-142.39
4944;BMP280;2487;52.224;11.006;2022-08-30T05:19:44;51595.00;;;-142.39
4944;BMP280;2487;52.224;11.006;2022-08-30T05:22:10;51564.63;;;-142.39
4944;BMP280;2487;52.224;11.006;2022-08-30T05:24:36;51603.09;;;-142.39
4944;BMP280;2487;52.224;11.006;2022-08-30T05:27:02;51566.66;;;-142.39
4944;BMP280;2487;52.224;11.006;2022-08-30T05:29:29;51572.72;;;-142.39
4944;BMP280;2487;52.224;11.006;2022-08-30T05:31:59;51572.72;;;-142.39
4944;BMP280;2487;52.224;11.006;2022-08-30T05:34:25;51540.34;;;-142.39
4944;BMP280;2487;52.224;11.006;2022-08-30T05:36:53;51548.44;;;-142.39
4944;BMP280;2487;52.224;11.006;2022-08-30T05:39:19;51578.78;;;-142.39
4944;BMP280;2487;52.224;11.006;2022-08-30T05:41:45;51566.66;;;-142.39
4944;BMP280;2487;52.224;11.006;2022-08-30T05:44:10;51601.06;;;-142.39
4944;BMP280;2487;52.224;11.006;2022-08-30T05:46:37;51558.56;;;-142.39
4944;BMP280;2487;52.224;11.006;2022-08-30T05:49:05;51522.13;;;-142.39
4944;BMP280;2487;52.224;11.006;2022-08-30T05:51:33;51524.16;;;-142.39
4944;BMP280;2487;52.224;11.006;2022-08-30T05:54:00;51595.00;;;-142.39
4944;BMP280;2487;52.224;11.006;2022-08-30T05:56:32;51554.50;;;-142.39
4944;BMP280;2487;52.224;11.006;2022-08-30T05:59:02;51542.38;;;-142.39
4944;BMP280;2487;52.224;11.006;2022-08-30T06:01:29;51562.59;;;-142.39
4944;BMP280;2487;52.224;11.006;2022-08-30T06:04:00;51590.94;;;-142.39
4944;BMP280;2487;52.224;11.006;2022-08-30T06:06:29;51570.69;;;-142.39
4944;BMP280;2487;52.224;11.006;2022-08-30T06:08:55;51562.59;;;-142.39
4944;BMP280;2487;52.224;11.006;2022-08-30T06:11:23;51550.47;;;-142.39
4944;BMP280;2487;52.224;11.006;2022-08-30T06:13:51;51538.31;;;-142.39
4944;BMP280;2487;52.224;11.006;2022-08-30T06:16:18;51550.47;;;-142.39
4944;BMP280;2487;52.224;11.006;2022-08-30T06:18:45;51550.47;;;-142.39
4944;BMP280;2487;52.224;11.006;2022-08-30T06:21:18;51550.47;;;-142.39
4944;BMP280;2487;52.224;11.006;2022-08-30T06:23:45;51562.59;;;-142.39
4944;BMP280;2487;52.224;11.006;2022-08-30T06:26:11;51560.59;;;-142.39
4944;BMP280;2487;52.224;11.006;2022-08-30T06:28:37;51550.47;;;-142.39
4944;BMP280;2487;52.224;11.006;2022-08-30T06:31:08;51554.50;;;-142.39
4944;BMP280;2487;52.224;11.006;2022-08-30T06:33:34;51493.81;;;-142.39
4944;BMP280;2487;52.224;11.006;2022-08-30T06:36:08;51520.13;;;-142.39
4944;BMP280;2487;52.224;11.006;2022-08-30T06:38:34;51518.09;;;-142.39
4944;BMP280;2487;52.224;11.006;2022-08-30T06:41:07;51528.22;;;-142.39
4944;BMP280;2487;52.224;11.006;2022-08-30T06:43:34;51548.44;;;-142.39
4944;BMP280;2487;52.224;11.006;2022-08-30T06:46:05;51497.84;;;-142.39
4944;BMP280;2487;52.224;11.006;2022-08-30T06:48:31;51550.47;;;-142.39
4944;BMP280;2487;52.224;11.006;2022-08-30T06:50:57;51501.91;;;-142.39
4944;BMP280;2487;52.224;11.006;2022-08-30T06:53:24;51576.78;;;-142.39
4944;BMP280;2487;52.224;11.006;2022-08-30T06:55:58;51518.09;;;-142.39
4944;BMP280;2487;52.224;11.006;2022-08-30T06:58:26;51540.34;;;-142.39
4944;BMP280;2487;52.224;11.006;2022-08-30T07:00:52;51534.28;;;-142.39
4944;BMP280;2487;52.224;11.006;2022-08-30T07:03:18;51542.38;;;-142.39
4944;BMP280;2487;52.224;11.006;2022-08-30T07:05:44;51532.25;;;-142.39
4944;BMP280;2487;52.224;11.006;2022-08-30T07:08:11;51546.41;;;-142.39
4944;BMP280;2487;52.224;11.006;2022-08-30T07:10:38;51556.53;;;-142.39
4944;BMP280;2487;52.224;11.006;2022-08-30T07:13:05;51562.59;;;-142.39
4944;BMP280;2487;52.224;11.006;2022-08-30T07:15:31;51528.22;;;-142.39
4944;BMP280;2487;52.224;11.006;2022-08-30T07:17:57;51530.22;;;-142.39
4944;BMP280;2487;52.224;11.006;2022-08-30T07:20:41;51542.38;;;-142.39
4944;BMP280;2487;52.224;11.006;2022-08-30T07:23:08;51530.22;;;-142.39
4944;BMP280;2487;52.224;11.006;2022-08-30T07:25:38;51544.41;;;-142.39
4944;BMP280;2487;52.224;11.006;2022-08-30T07:28:08;51505.94;;;-142.39
4944;BMP280;2487;52.224;11.006;2022-08-30T07:30:34;51530.22;;;-142.39
4944;BMP280;2487;52.224;11.006;2022-08-30T07:33:00;51507.97;;;-142.39
4944;BMP280;2487;52.224;11.006;2022-08-30T07:35:26;51501.91;;;-142.39
4944;BMP280;2487;52.224;11.006;2022-08-30T07:37:51;51501.91;;;-142.39
4944;BMP280;2487;52.224;11.006;2022-08-30T07:40:17;51530.22;;;-142.39
4944;BMP280;2487;52.224;11.006;2022-08-30T07:42:43;51540.34;;;-142.39
4944;BMP280;2487;52.224;11.006;2022-08-30T07:45:10;51485.72;;;-142.39
4944;BMP280;2487;52.224;11.006;2022-08-30T07:47:36;51528.22;;;-142.39
4944;BMP280;2487;52.224;11.006;2022-08-30T07:50:04;51522.13;;;-142.39
4944;BMP280;2487;52.224;11.006;2022-08-30T07:52:30;51524.16;;;-142.39
4944;BMP280;2487;52.224;11.006;2022-08-30T07:54:57;51526.19;;;-142.39
4944;BMP280;2487;52.224;11.006;2022-08-30T07:57:23;51505.94;;;-142.39
4944;BMP280;2487;52.224;11.006;2022-08-30T07:59:50;51550.47;;;-142.39
4944;BMP280;2487;52.224;11.006;2022-08-30T08:02:16;51507.97;;;-142.39
4944;BMP280;2487;52.224;11.006;2022-08-30T08:04:42;51497.84;;;-142.39
4944;BMP280;2487;52.224;11.006;2022-08-30T08:07:09;51510.00;;;-142.39
4944;BMP280;2487;52.224;11.006;2022-08-30T08:09:36;51505.94;;;-142.39
4944;BMP280;2487;52.224;11.006;2022-08-30T08:12:03;51520.13;;;-142.39
4944;BMP280;2487;52.224;11.006;2022-08-30T08:14:29;51530.22;;;-142.39
4944;BMP280;2487;52.224;11.006;2022-08-30T08:16:55;51518.09;;;-142.39
4944;BMP280;2487;52.224;11.006;2022-08-30T08:19:21;51540.34;;;-142.39
4944;BMP280;2487;52.224;11.006;2022-08-30T08:21:47;51536.31;;;-142.39
4944;BMP280;2487;52.224;11.006;2022-08-30T08:24:12;51544.41;;;-142.39
4944;BMP280;2487;52.224;11.006;2022-08-30T08:26:39;51507.97;;;-142.39
4944;BMP280;2487;52.224;11.006;2022-08-30T08:29:07;51580.81;;;-142.39
4944;BMP280;2487;52.224;11.006;2022-08-30T08:31:33;51522.13;;;-142.39
4944;BMP280;2487;52.224;11.006;2022-08-30T08:33:59;51503.91;;;-142.39
4944;BMP280;2487;52.224;11.006;2022-08-30T08:36:25;51497.84;;;-142.39
4944;BMP280;2487;52.224;11.006;2022-08-30T08:38:52;51503.91;;;-142.39
4944;BMP280;2487;52.224;11.006;2022-08-30T08:49:37;51495.81;;;-142.39
4944;BMP280;2487;52.224;11.006;2022-08-30T08:52:07;51477.63;;;-142.39
4944;BMP280;2487;52.224;11.006;2022-08-30T08:55:01;51505.94;;;-142.39
4944;BMP280;2487;52.224;11.006;2022-08-30T08:57:34;51538.31;;;-142.39
4944;BMP280;2487;52.224;11.006;2022-08-30T09:00:02;51505.94;;;-142.39
4944;BMP280;2487;52.224;11.006;2022-08-30T09:03:06;51505.94;;;-142.39
4944;BMP280;2487;52.224;11.006;2022-08-30T09:05:37;51503.91;;;-142.39
4944;BMP280;2487;52.224;11.006;2022-08-30T09:08:07;51514.03;;;-142.39
4944;BMP280;2487;52.224;11.006;2022-08-30T09:10:34;51512.03;;;-142.39
4944;BMP280;2487;52.224;11.006;2022-08-30T09:13:00;51516.06;;;-142.39
4944;BMP280;2487;52.224;11.006;2022-08-30T09:15:29;51469.53;;;-142.39
4944;BMP280;2487;52.224;11.006;2022-08-30T09:18:04;51520.13;;;-142.39
4944;BMP280;2487;52.224;11.006;2022-08-30T09:20:37;51497.84;;;-142.39
4944;BMP280;2487;52.224;11.006;2022-08-30T09:28:20;51512.03;;;-142.39
4944;BMP280;2487;52.224;11.006;2022-08-30T09:30:58;51518.09;;;-142.39
4944;BMP280;2487;52.224;11.006;2022-08-30T09:33:24;51507.97;;;-142.39
4944;BMP280;2487;52.224;11.006;2022-08-30T09:35:51;51477.63;;;-142.39
4944;BMP280;2487;52.224;11.006;2022-08-30T09:40:55;51489.75;;;-142.39
4944;BMP280;2487;52.224;11.006;2022-08-30T09:43:27;51487.75;;;-142.39
4944;BMP280;2487;52.224;11.006;2022-08-30T09:51:24;51495.81;;;-142.39
4944;BMP280;2487;52.224;11.006;2022-08-30T10:01:32;51483.69;;;-142.39
4944;BMP280;2487;52.224;11.006;2022-08-30T10:06:37;51512.03;;;-142.39
4944;BMP280;2487;52.224;11.006;2022-08-30T10:17:45;51465.47;;;-142.39
4944;BMP280;2487;52.224;11.006;2022-08-30T10:20:28;51471.53;;;-142.39
4944;BMP280;2487;52.224;11.006;2022-08-30T10:25:50;51469.53;;;-142.39
4944;BMP280;2487;52.224;11.006;2022-08-30T10:28:42;51422.97;;;-142.39
4944;BMP280;2487;52.224;11.006;2022-08-30T10:31:35;51443.22;;;-142.39
4944;BMP280;2487;52.224;11.006;2022-08-30T10:34:09;51475.59;;;-142.39
4944;BMP280;2487;52.224;11.006;2022-08-30T10:36:45;51433.09;;;-142.39
4944;BMP280;2487;52.224;11.006;2022-08-30T10:39:17;51467.50;;;-142.39
4944;BMP280;2487;52.224;11.006;2022-08-30T10:41:54;51495.81;;;-142.39
4944;BMP280;2487;52.224;11.006;2022-08-30T10:44:36;51497.84;;;-142.39
4944;BMP280;2487;52.224;11.006;2022-08-30T10:47:20;51471.53;;;-142.39
4944;BMP280;2487;52.224;11.006;2022-08-30T10:49:49;51443.22;;;-142.39
4944;BMP280;2487;52.224;11.006;2022-08-30T10:52:24;51493.81;;;-142.39
4944;BMP280;2487;52.224;11.006;2022-08-30T10:54:58;51443.22;;;-142.39
4944;BMP280;2487;52.224;11.006;2022-08-30T10:57:24;51437.16;;;-142.39
4944;BMP280;2487;52.224;11.006;2022-08-30T10:59:53;51429.06;;;-142.39
4944;BMP280;2487;52.224;11.006;2022-08-30T11:08:16;51447.25;;;-142.39
4944;BMP280;2487;52.224;11.006;2022-08-30T11:11:05;51510.00;;;-142.39
4944;BMP280;2487;52.224;11.006;2022-08-30T11:13:37;51445.25;;;-142.39
4944;BMP280;2487;52.224;11.006;2022-08-30T11:16:08;51485.72;;;-142.39
4944;BMP280;2487;52.224;11.006;2022-08-30T11:18:46;51514.03;;;-142.39
4944;BMP280;2487;52.224;11.006;2022-08-30T11:21:17;51514.03;;;-142.39
4944;BMP280;2487;52.224;11.006;2022-08-30T11:24:07;51532.25;;;-142.39
4944;BMP280;2487;52.224;11.006;2022-08-30T11:29:39;51483.69;;;-142.39
4944;BMP280;2487;52.224;11.006;2022-08-30T11:34:58;51457.38;;;-142.39
4944;BMP280;2487;52.224;11.006;2022-08-30T11:37:43;51461.44;;;-142.39
4944;BMP280;2487;52.224;11.006;2022-08-30T11:42:46;51479.63;;;-142.39
4944;BMP280;2487;52.224;11.006;2022-08-30T11:47:56;51453.34;;;-142.39
4944;BMP280;2487;52.224;11.006;2022-08-30T11:58:29;51469.53;;;-142.39
4944;BMP280;2487;52.224;11.006;2022-08-30T12:03:40;51481.66;;;-142.39
4944;BMP280;2487;52.224;11.006;2022-08-30T12:06:08;51489.75;;;-142.39
4944;BMP280;2487;52.224;11.006;2022-08-30T12:13:59;51485.72;;;-142.39
4944;BMP280;2487;52.224;11.006;2022-08-30T12:19:15;51467.50;;;-142.39
4944;BMP280;2487;52.224;11.006;2022-08-30T12:21:42;51400.72;;;-142.39
4944;BMP280;2487;52.224;11.006;2022-08-30T12:24:24;51427.03;;;-142.39
4944;BMP280;2487;52.224;11.006;2022-08-30T12:26:52;51471.53;;;-142.39
4944;BMP280;2487;52.224;11.006;2022-08-30T12:29:20;51481.66;;;-142.39
4944;BMP280;2487;52.224;11.006;2022-08-30T12:31:50;51420.97;;;-142.39
4944;BMP280;2487;52.224;11.006;2022-08-30T12:34:34;51457.38;;;-142.39
4944;BMP280;2487;52.224;11.006;2022-08-30T12:39:33;51441.19;;;-142.39
4944;BMP280;2487;52.224;11.006;2022-08-30T12:42:25;51392.63;;;-142.39
4944;BMP280;2487;52.224;11.006;2022-08-30T12:44:54;51404.78;;;-142.39
4944;BMP280;2487;52.224;11.006;2022-08-30T12:47:24;51437.16;;;-142.39
4944;BMP280;2487;52.224;11.006;2022-08-30T12:49:52;51404.78;;;-142.39
4944;BMP280;2487;52.224;11.006;2022-08-30T12:54:53;51400.72;;;-142.39
4944;BMP280;2487;52.224;11.006;2022-08-30T13:00:10;51445.25;;;-142.39
4944;BMP280;2487;52.224;11.006;2022-08-30T13:03:03;51465.47;;;-142.39
4944;BMP280;2487;52.224;11.006;2022-08-30T13:11:10;51386.56;;;-142.39
4944;BMP280;2487;52.224;11.006;2022-08-30T13:13:43;51467.50;;;-142.39
4944;BMP280;2487;52.224;11.006;2022-08-30T13:16:21;51477.63;;;-142.39
4944;BMP280;2487;52.224;11.006;2022-08-30T13:21:52;51497.84;;;-142.39
4944;BMP280;2487;52.224;11.006;2022-08-30T13:24:18;51487.75;;;-142.39
4944;BMP280;2487;52.224;11.006;2022-08-30T13:26:44;51530.22;;;-142.39
4944;BMP280;2487;52.224;11.006;2022-08-30T13:29:15;51524.16;;;-142.39
4944;BMP280;2487;52.224;11.006;2022-08-30T13:31:41;51510.00;;;-142.39
4944;BMP280;2487;52.224;11.006;2022-08-30T13:34:06;51520.13;;;-142.39
4944;BMP280;2487;52.224;11.006;2022-08-30T13:36:40;51520.13;;;-142.39
4944;BMP280;2487;52.224;11.006;2022-08-30T13:39:08;51512.03;;;-142.39
4944;BMP280;2487;52.224;11.006;2022-08-30T13:41:35;51503.91;;;-142.39
4944;BMP280;2487;52.224;11.006;2022-08-30T13:44:01;51465.47;;;-142.39
4944;BMP280;2487;52.224;11.006;2022-08-30T13:46:29;51481.66;;;-142.39
4944;BMP280;2487;52.224;11.006;2022-08-30T13:49:07;51445.25;;;-142.39
4944;BMP280;2487;52.224;11.006;2022-08-30T13:51:33;51408.81;;;-142.39
4944;BMP280;2487;52.224;11.006;2022-08-30T13:53:59;51459.41;;;-142.39
4944;BMP280;2487;52.224;11.006;2022-08-30T13:56:26;51420.97;;;-142.39
4944;BMP280;2487;52.224;11.006;2022-08-30T13:58:57;51441.19;;;-142.39
4944;BMP280;2487;52.224;11.006;2022-08-30T14:01:22;51447.25;;;-142.39
4944;BMP280;2487;52.224;11.006;2022-08-30T14:03:48;51431.06;;;-142.39
4944;BMP280;2487;52.224;11.006;2022-08-30T14:06:14;51420.97;;;-142.39
4944;BMP280;2487;52.224;11.006;2022-08-30T14:08:40;51437.16;;;-142.39
4944;BMP280;2487;52.224;11.006;2022-08-30T14:11:06;51418.94;;;-142.39
4944;BMP280;2487;52.224;11.006;2022-08-30T14:13:32;51457.38;;;-142.39
4944;BMP280;2487;52.224;11.006;2022-08-30T14:16:00;51467.50;;;-142.39
4944;BMP280;2487;52.224;11.006;2022-08-30T14:18:26;51453.34;;;-142.39
4944;BMP280;2487;52.224;11.006;2022-08-30T14:20:52;51465.47;;;-142.39
4944;BMP280;2487;52.224;11.006;2022-08-30T14:23:18;51441.19;;;-142.39
4944;BMP280;2487;52.224;11.006;2022-08-30T14:25:43;51455.34;;;-142.39
4944;BMP280;2487;52.224;11.006;2022-08-30T14:28:09;51481.66;;;-142.39
4944;BMP280;2487;52.224;11.006;2022-08-30T14:30:35;51445.25;;;-142.39
4944;BMP280;2487;52.224;11.006;2022-08-30T14:33:01;51437.16;;;-142.39
4944;BMP280;2487;52.224;11.006;2022-08-30T14:35:27;51487.75;;;-142.39
4944;BMP280;2487;52.224;11.006;2022-08-30T14:37:53;51479.63;;;-142.39
4944;BMP280;2487;52.224;11.006;2022-08-30T14:40:19;51485.72;;;-142.39
4944;BMP280;2487;52.224;11.006;2022-08-30T14:42:44;51469.53;;;-142.39
4944;BMP280;2487;52.224;11.006;2022-08-30T14:45:10;51487.75;;;-142.39
4944;BMP280;2487;52.224;11.006;2022-08-30T14:47:36;51461.44;;;-142.39
4944;BMP280;2487;52.224;11.006;2022-08-30T14:50:03;51491.78;;;-142.39
4944;BMP280;2487;52.224;11.006;2022-08-30T14:52:30;51471.53;;;-142.39
4944;BMP280;2487;52.224;11.006;2022-08-30T14:55:00;51481.66;;;-142.39
4944;BMP280;2487;52.224;11.006;2022-08-30T14:57:26;51465.47;;;-142.39
4944;BMP280;2487;52.224;11.006;2022-08-30T14:59:52;51475.59;;;-142.39
4944;BMP280;2487;52.224;11.006;2022-08-30T15:02:24;51495.81;;;-142.39
4944;BMP280;2487;52.224;11.006;2022-08-30T15:04:50;51524.16;;;-142.39
4944;BMP280;2487;52.224;11.006;2022-08-30T15:07:16;51538.31;;;-142.39
4944;BMP280;2487;52.224;11.006;2022-08-30T15:09:42;51503.91;;;-142.39
4944;BMP280;2487;52.224;11.006;2022-08-30T15:12:08;51542.38;;;-142.39
4944;BMP280;2487;52.224;11.006;2022-08-30T15:14:34;51520.13;;;-142.39
4944;BMP280;2487;52.224;11.006;2022-08-30T15:17:00;51522.13;;;-142.39
4944;BMP280;2487;52.224;11.006;2022-08-30T15:19:30;51532.25;;;-142.39
4944;BMP280;2487;52.224;11.006;2022-08-30T15:22:01;51501.91;;;-142.39
4944;BMP280;2487;52.224;11.006;2022-08-30T15:24:27;51520.13;;;-142.39
4944;BMP280;2487;52.224;11.006;2022-08-30T15:26:52;51505.94;;;-142.39
4944;BMP280;2487;52.224;11.006;2022-08-30T15:29:19;51528.22;;;-142.39
4944;BMP280;2487;52.224;11.006;2022-08-30T15:31:46;51528.22;;;-142.39
4944;BMP280;2487;52.224;11.006;2022-08-30T15:34:14;51497.84;;;-142.39
4944;BMP280;2487;52.224;11.006;2022-08-30T15:36:42;51516.06;;;-142.39
4944;BMP280;2487;52.224;11.006;2022-08-30T15:39:09;51514.03;;;-142.39
4944;BMP280;2487;52.224;11.006;2022-08-30T15:41:35;51503.91;;;-142.39
4944;BMP280;2487;52.224;11.006;2022-08-30T15:44:02;51475.59;;;-142.39